Time;durP1;ratioP1;P1;durP2;ratioP2;P2;SDS_P1;SDS_P2;PMS_P1;PMS_P2;Temp;Humidity;BMP_temperature;BMP_pressure;BME280_temperature;BME280_humidity;BME280_pressure;Samples;Min_cycle;Max_cycle;Signal;HPM_P1;HPM_P2
2021/11/22 00:00:54;;;;;;;186.82;112.45;;;153.90;2252.80;;;;;;5097929;28;20082;-83
2021/11/22 00:03:20;;;;;;;182.88;112.75;;;153.90;2252.80;;;;;;5096862;28;20059;-85
2021/11/22 00:05:47;;;;;;;216.02;129.77;;;153.90;2252.80;;;;;;5096551;28;20053;-84
2021/11/22 00:08:14;;;;;;;200.05;119.68;;;153.80;2252.80;;;;;;5097029;28;20054;-85
2021/11/22 00:10:40;;;;;;;187.45;113.38;;;153.70;2252.80;;;;;;5096398;28;20031;-85
2021/11/22 00:13:06;;;;;;;167.20;103.72;;;153.70;2252.80;;;;;;5095863;28;20035;-84
2021/11/22 00:15:31;;;;;;;180.35;109.45;;;128.90;2252.80;;;;;;5096254;28;20036;-84
2021/11/22 00:17:57;;;;;;;180.15;106.97;;;128.90;2252.80;;;;;;5095954;28;20032;-85
2021/11/22 00:20:24;;;;;;;190.05;116.95;;;128.90;2252.80;;;;;;5096261;28;20032;-83
2021/11/22 00:22:51;;;;;;;201.07;122.00;;;128.90;2252.80;;;;;;5096072;28;20020;-86
2021/11/22 00:25:18;;;;;;;184.63;111.78;;;128.90;2252.80;;;;;;5096226;28;20032;-87
2021/11/22 00:27:44;;;;;;;124.80;78.20;;;153.60;2252.80;;;;;;5097566;28;20028;-85
2021/11/22 00:30:12;;;;;;;118.68;72.60;;;128.90;2252.80;;;;;;5096092;28;20024;-85
2021/11/22 00:32:39;;;;;;;98.63;64.05;;;128.90;2252.80;;;;;;5095866;28;20119;-79
2021/11/22 00:35:06;;;;;;;104.95;69.43;;;128.60;2252.80;;;;;;5096254;28;20078;-83
2021/11/22 00:37:36;;;;;;;141.75;90.43;;;128.60;2252.80;;;;;;5095977;28;20070;-84
2021/11/22 00:40:05;;;;;;;164.38;106.55;;;128.60;2252.80;;;;;;5096023;28;20054;-85
2021/11/22 00:42:30;;;;;;;155.73;96.32;;;128.60;2252.80;;;;;;5096146;28;20379;-85
2021/11/22 00:44:57;;;;;;;166.05;108.63;;;128.60;2252.80;;;;;;5096106;28;20028;-86
2021/11/22 00:47:23;;;;;;;269.65;152.15;;;128.70;2252.80;;;;;;5095765;28;20420;-79
2021/11/22 00:49:49;;;;;;;226.98;132.68;;;128.50;2252.80;;;;;;5098574;28;20024;-86
2021/11/22 00:52:16;;;;;;;273.33;144.35;;;128.40;2252.80;;;;;;5098336;28;20024;-86
2021/11/22 00:54:42;;;;;;;243.82;136.88;;;128.50;2252.80;;;;;;5097221;28;20032;-86
2021/11/22 00:57:08;;;;;;;213.38;130.35;;;128.80;2252.80;;;;;;5096602;28;20050;-87
2021/11/22 00:59:34;;;;;;;194.95;119.32;;;128.80;2252.80;;;;;;5095626;28;20123;-87
2021/11/22 01:02:00;;;;;;;179.20;106.20;;;128.80;2252.80;;;;;;5096438;28;20032;-87
2021/11/22 01:04:27;;;;;;;152.65;93.32;;;153.60;2252.80;;;;;;5097856;28;20024;-86
2021/11/22 01:06:53;;;;;;;137.02;83.35;;;153.60;2252.80;;;;;;5097116;28;20031;-86
2021/11/22 01:09:19;;;;;;;138.60;89.60;;;128.90;2252.80;;;;;;5096392;28;20032;-87
2021/11/22 01:11:45;;;;;;;146.15;85.32;;;128.40;2252.80;;;;;;5096529;28;20047;-87
2021/11/22 01:14:12;;;;;;;144.88;87.43;;;128.30;2252.80;;;;;;5096493;28;20035;-87
2021/11/22 01:16:38;;;;;;;140.93;85.38;;;128.40;2252.80;;;;;;5096619;28;20109;-86
2021/11/22 01:19:05;;;;;;;142.23;90.72;;;128.50;2252.80;;;;;;5096703;28;20034;-87
2021/11/22 01:21:31;;;;;;;119.30;76.28;;;128.40;2252.80;;;;;;5096298;28;20548;-87
2021/11/22 01:23:57;;;;;;;114.97;69.53;;;128.40;2252.80;;;;;;5096727;28;20031;-87
2021/11/22 01:26:23;;;;;;;136.60;84.50;;;128.50;2252.80;;;;;;5096715;28;20026;-87
2021/11/22 01:28:49;;;;;;;126.97;78.32;;;128.40;2252.80;;;;;;5096362;28;20024;-88
2021/11/22 01:31:16;;;;;;;127.82;78.15;;;128.40;2252.80;;;;;;5096019;28;20486;-87
2021/11/22 01:33:42;;;;;;;107.72;69.07;;;128.60;2252.80;;;;;;5098099;28;20034;-83
2021/11/22 01:36:08;;;;;;;121.18;73.32;;;128.80;2252.80;;;;;;5100458;28;20027;-85
2021/11/22 01:38:35;;;;;;;127.85;80.30;;;128.80;2252.80;;;;;;5101550;28;20031;-83
2021/11/22 01:41:01;;;;;;;135.25;82.82;;;128.80;2252.80;;;;;;5101668;28;20073;-84
2021/11/22 01:43:28;;;;;;;156.45;93.75;;;128.90;2252.80;;;;;;5101341;28;20027;-84
2021/11/22 01:45:54;;;;;;;143.88;87.30;;;128.70;2252.80;;;;;;5101046;28;20020;-85
2021/11/22 01:48:20;;;;;;;164.52;93.97;;;128.60;2252.80;;;;;;5101931;28;20463;-86
2021/11/22 01:50:48;;;;;;;128.25;74.80;;;128.70;2252.80;;;;;;5101199;28;20031;-85
2021/11/22 01:53:15;;;;;;;104.65;64.00;;;128.40;2252.80;;;;;;5101002;28;20123;-83
2021/11/22 01:55:42;;;;;;;99.88;59.58;;;128.00;2252.80;;;;;;5101500;28;20093;-83
2021/11/22 01:58:08;;;;;;;96.30;55.72;;;128.30;2252.80;;;;;;5102550;28;20027;-85
2021/11/22 02:00:50;;;;;;;78.05;49.88;;;128.10;2252.80;;;;;;5101439;28;20039;-83
2021/11/22 02:03:17;;;;;;;88.05;52.28;;;128.00;2252.80;;;;;;5101517;28;20113;-82
2021/11/22 02:05:44;;;;;;;150.25;82.47;;;128.10;2252.80;;;;;;5103444;28;20093;-83
2021/11/22 02:08:10;;;;;;;168.38;87.40;;;128.20;2252.80;;;;;;5101963;28;20028;-84
2021/11/22 02:10:36;;;;;;;159.98;89.95;;;128.40;2252.80;;;;;;5101769;28;20028;-82
2021/11/22 02:13:03;;;;;;;125.63;73.35;;;128.40;2252.80;;;;;;5102138;28;20024;-85
2021/11/22 02:15:30;;;;;;;157.90;91.80;;;128.50;2252.80;;;;;;5099241;28;20055;-84
2021/11/22 02:17:56;;;;;;;129.23;71.00;;;128.40;2252.80;;;;;;5094761;28;20055;-88
2021/11/22 02:20:28;;;;;;;103.60;60.63;;;128.10;2252.80;;;;;;5096122;28;20471;-87
2021/11/22 02:23:03;;;;;;;93.82;55.50;;;128.30;2252.80;;;;;;5096025;28;20107;-88
2021/11/22 02:25:32;;;;;;;101.93;59.67;;;128.50;2252.80;;;;;;5094474;28;20077;-87
2021/11/22 02:27:59;;;;;;;89.65;56.85;;;128.50;2252.80;;;;;;5094427;28;20031;-87
2021/11/22 02:30:31;;;;;;;94.20;55.95;;;128.60;2252.80;;;;;;5094348;28;20157;-85
2021/11/22 02:32:59;;;;;;;92.30;53.70;;;128.70;2252.80;;;;;;5094824;28;20027;-87
2021/11/22 02:35:26;;;;;;;98.88;61.10;;;128.50;2252.80;;;;;;5094521;28;20020;-87
2021/11/22 02:37:52;;;;;;;105.93;62.00;;;153.70;2252.80;;;;;;5095217;28;20028;-88
2021/11/22 02:40:18;;;;;;;98.13;60.53;;;128.50;2252.80;;;;;;5094203;28;20039;-89
2021/11/22 02:42:45;;;;;;;141.18;86.18;;;128.60;2252.80;;;;;;5095273;28;20471;-86
2021/11/22 02:45:13;;;;;;;106.85;66.15;;;128.30;2252.80;;;;;;5095078;28;20027;-88
2021/11/22 02:47:41;;;;;;;97.25;61.55;;;128.10;2252.80;;;;;;5094667;28;20020;-89
2021/11/22 02:50:11;;;;;;;91.68;59.45;;;128.10;2252.80;;;;;;5094107;28;20024;-87
2021/11/22 02:52:37;;;;;;;94.57;58.95;;;128.10;2252.80;;;;;;5094206;28;20382;-87
2021/11/22 02:55:04;;;;;;;105.03;64.13;;;128.00;2252.80;;;;;;5094035;28;20023;-88
2021/11/22 02:57:30;;;;;;;99.05;61.80;;;128.20;2252.80;;;;;;5094031;28;20031;-88
2021/11/22 02:59:56;;;;;;;91.70;57.63;;;128.20;2252.80;;;;;;5093722;28;20460;-87
2021/11/22 03:02:22;;;;;;;86.97;53.30;;;128.40;2252.80;;;;;;5093791;28;20035;-87
2021/11/22 03:04:47;;;;;;;92.65;54.55;;;128.40;2252.80;;;;;;5093801;28;20031;-87
2021/11/22 03:07:13;;;;;;;94.13;54.75;;;128.30;2252.80;;;;;;5093774;28;20168;-88
2021/11/22 03:09:40;;;;;;;76.88;50.03;;;128.30;2252.80;;;;;;5093771;28;20391;-88
2021/11/22 03:12:09;;;;;;;92.55;55.80;;;128.00;2252.80;;;;;;5093653;28;20390;-87
2021/11/22 03:14:36;;;;;;;91.35;53.60;;;103.10;2227.20;;;;;;5093675;28;20020;-87
2021/11/22 03:17:03;;;;;;;86.18;51.53;;;103.30;2227.20;;;;;;5093681;28;20055;-86
2021/11/22 03:19:29;;;;;;;96.40;54.88;;;128.20;2252.80;;;;;;5093538;28;20441;-86
2021/11/22 03:21:55;;;;;;;97.50;58.90;;;128.30;2252.80;;;;;;5093201;28;20028;-88
2021/11/22 03:24:21;;;;;;;98.75;61.97;;;128.30;2252.80;;;;;;5093695;28;20537;-85
2021/11/22 03:26:47;;;;;;;78.45;48.40;;;128.10;2252.80;;;;;;5093481;28;20040;-87
2021/11/22 03:29:13;;;;;;;82.70;50.08;;;103.10;2227.20;;;;;;5093398;28;20024;-88
2021/11/22 03:31:40;;;;;;;83.93;48.35;;;103.30;2227.20;;;;;;5093335;28;20028;-87
2021/11/22 03:34:09;;;;;;;80.20;49.10;;;103.30;2227.20;;;;;;5093284;28;20386;-86
2021/11/22 03:36:36;;;;;;;113.65;70.20;;;103.30;2227.20;;;;;;5094642;28;20052;-88
2021/11/22 03:39:07;;;;;;;95.40;60.53;;;128.00;2252.80;;;;;;5093406;28;20388;-86
2021/11/22 03:41:34;;;;;;;90.03;53.38;;;103.30;2227.20;;;;;;5093269;28;20115;-88
2021/11/22 03:44:10;;;;;;;77.47;49.28;;;103.30;2227.20;;;;;;5094572;28;20031;-88
2021/11/22 03:46:36;;;;;;;69.63;45.95;;;103.30;2227.20;;;;;;5093337;28;20025;-86
2021/11/22 03:49:02;;;;;;;77.53;46.53;;;128.10;2252.80;;;;;;5093286;28;20070;-87
2021/11/22 03:51:28;;;;;;;77.25;49.22;;;128.30;2252.80;;;;;;5093364;28;20024;-86
2021/11/22 03:53:54;;;;;;;83.63;51.30;;;128.20;2252.80;;;;;;5093306;28;20478;-88
2021/11/22 03:56:20;;;;;;;86.25;53.13;;;128.30;2252.80;;;;;;5092507;28;20044;-87
2021/11/22 03:58:46;;;;;;;87.95;53.83;;;128.30;2252.80;;;;;;5093108;28;20028;-86
2021/11/22 04:01:11;;;;;;;84.05;50.00;;;128.40;2252.80;;;;;;5093501;28;20376;-86
2021/11/22 04:03:37;;;;;;;90.38;54.97;;;128.60;2252.80;;;;;;5092948;28;20020;-86
2021/11/22 04:06:03;;;;;;;133.43;81.53;;;128.10;2252.80;;;;;;5093233;28;20031;-88
2021/11/22 04:08:30;;;;;;;169.90;96.05;;;103.00;2227.20;;;;;;5092878;28;20118;-87
2021/11/22 04:10:56;;;;;;;148.57;89.75;;;103.20;2227.20;;;;;;5093281;28;20170;-87
2021/11/22 04:13:22;;;;;;;136.73;79.95;;;103.10;2227.20;;;;;;5093251;28;20115;-87
2021/11/22 04:15:48;;;;;;;112.43;66.78;;;103.30;2227.20;;;;;;5092857;28;20468;-87
2021/11/22 04:18:14;;;;;;;95.85;58.40;;;128.70;2252.80;;;;;;5093059;28;20036;-86
2021/11/22 04:20:41;;;;;;;75.53;46.58;;;128.00;2252.80;;;;;;5093113;28;20097;-87
2021/11/22 04:23:08;;;;;;;73.80;44.53;;;128.00;2252.80;;;;;;5092985;28;20035;-87
2021/11/22 04:25:34;;;;;;;83.63;48.38;;;128.00;2252.80;;;;;;5092976;28;20375;-86
2021/11/22 04:28:00;;;;;;;83.18;50.85;;;128.10;2252.80;;;;;;5092954;28;20028;-87
2021/11/22 04:30:26;;;;;;;88.85;56.80;;;103.10;2227.20;;;;;;5092989;28;20028;-88
2021/11/22 04:32:52;;;;;;;95.43;58.90;;;103.10;2227.20;;;;;;5092946;28;20028;-86
2021/11/22 04:35:18;;;;;;;77.40;48.00;;;103.20;2227.20;;;;;;5096468;28;20069;-87
2021/11/22 04:37:44;;;;;;;69.10;46.67;;;103.10;2227.20;;;;;;5096380;28;20024;-86
2021/11/22 04:40:13;;;;;;;75.50;47.78;;;103.20;2227.20;;;;;;5097655;28;20024;-87
2021/11/22 04:42:39;;;;;;;78.07;46.40;;;103.10;2227.20;;;;;;5096140;28;20028;-88
2021/11/22 04:45:06;;;;;;;76.13;46.25;;;103.00;2227.20;;;;;;5095999;28;20055;-87
2021/11/22 04:47:34;;;;;;;75.45;48.67;;;103.20;2227.20;;;;;;5096252;28;20118;-89
2021/11/22 04:50:00;;;;;;;78.30;48.13;;;128.00;2252.80;;;;;;5096266;28;20078;-87
2021/11/22 04:52:26;;;;;;;77.22;50.38;;;128.10;2252.80;;;;;;5096156;28;20028;-88
2021/11/22 04:54:52;;;;;;;100.70;61.75;;;128.30;2252.80;;;;;;5096077;28;20035;-88
2021/11/22 04:57:17;;;;;;;97.20;59.67;;;128.00;2252.80;;;;;;5095657;28;20044;-88
2021/11/22 04:59:44;;;;;;;95.10;57.92;;;128.00;2252.80;;;;;;5095890;28;20471;-86
2021/11/22 05:02:11;;;;;;;102.13;65.20;;;128.00;2252.80;;;;;;5096113;28;20391;-87
2021/11/22 05:04:37;;;;;;;129.45;79.60;;;128.10;2252.80;;;;;;5095801;28;20380;-88
2021/11/22 05:07:04;;;;;;;111.55;72.35;;;128.00;2252.80;;;;;;5095895;28;20024;-86
2021/11/22 05:09:31;;;;;;;131.05;82.93;;;128.10;2252.80;;;;;;5095862;28;20032;-87
2021/11/22 05:11:56;;;;;;;152.45;96.32;;;128.30;2252.80;;;;;;5096693;28;20028;-87
2021/11/22 05:14:23;;;;;;;121.88;79.35;;;128.20;2252.80;;;;;;5095741;28;20077;-87
2021/11/22 05:16:49;;;;;;;90.70;56.38;;;128.10;2252.80;;;;;;5095583;28;20059;-87
2021/11/22 05:19:16;;;;;;;84.78;53.28;;;103.30;2227.20;;;;;;5095416;28;20064;-88
2021/11/22 05:21:42;;;;;;;67.30;44.47;;;103.30;2227.20;;;;;;5095519;28;20028;-88
2021/11/22 05:24:09;;;;;;;72.63;47.78;;;103.20;2227.20;;;;;;5095733;28;20081;-88
2021/11/22 05:26:35;;;;;;;70.68;46.83;;;103.30;2227.20;;;;;;5097015;28;20042;-86
2021/11/22 05:29:02;;;;;;;92.63;55.75;;;128.20;2252.80;;;;;;5096730;28;20032;-87
2021/11/22 05:31:28;;;;;;;99.85;61.72;;;128.10;2252.80;;;;;;5095490;28;20032;-86
2021/11/22 05:33:54;;;;;;;91.95;56.53;;;128.20;2252.80;;;;;;5095363;28;20178;-87
2021/11/22 05:36:21;;;;;;;92.18;54.70;;;128.30;2252.80;;;;;;5095374;28;20024;-86
2021/11/22 05:38:47;;;;;;;83.15;51.38;;;128.50;2252.80;;;;;;5095123;28;20118;-86
2021/11/22 05:41:14;;;;;;;87.10;52.33;;;128.40;2252.80;;;;;;5095018;28;20410;-87
2021/11/22 05:43:40;;;;;;;88.80;54.80;;;128.50;2252.80;;;;;;5094481;28;20031;-85
2021/11/22 05:46:08;;;;;;;95.70;60.45;;;128.80;2252.80;;;;;;5094974;28;20028;-87
2021/11/22 05:48:34;;;;;;;88.97;57.85;;;128.40;2252.80;;;;;;5096079;28;20051;-86
2021/11/22 05:51:01;;;;;;;80.78;55.20;;;128.50;2252.80;;;;;;5094993;28;20048;-87
2021/11/22 05:53:33;;;;;;;88.93;56.60;;;128.70;2252.80;;;;;;5095886;28;20024;-86
2021/11/22 05:56:06;;;;;;;97.45;68.95;;;154.00;2252.80;;;;;;5094460;28;20048;-85
2021/11/22 05:58:32;;;;;;;104.03;67.60;;;128.80;2252.80;;;;;;5094640;28;20032;-87
2021/11/22 06:01:03;;;;;;;122.95;80.90;;;128.90;2252.80;;;;;;5094501;28;20379;-86
2021/11/22 06:03:30;;;;;;;118.47;79.20;;;128.90;2252.80;;;;;;5094932;28;20475;-87
2021/11/22 06:05:57;;;;;;;122.47;83.30;;;128.90;2252.80;;;;;;5094555;28;20027;-87
2021/11/22 06:08:24;;;;;;;125.65;84.40;;;128.90;2252.80;;;;;;5094405;28;20482;-86
2021/11/22 06:10:50;;;;;;;126.03;83.90;;;153.70;2252.80;;;;;;5094448;28;20119;-87
2021/11/22 06:13:17;;;;;;;145.10;92.40;;;128.80;2252.80;;;;;;5094423;28;20024;-86
2021/11/22 06:15:44;;;;;;;135.05;88.20;;;128.90;2252.80;;;;;;5094180;28;20028;-87
2021/11/22 06:18:10;;;;;;;124.18;81.57;;;128.80;2252.80;;;;;;5094269;28;20035;-86
2021/11/22 06:20:37;;;;;;;138.18;90.32;;;153.70;2252.80;;;;;;5095673;28;20098;-86
2021/11/22 06:23:04;;;;;;;128.60;87.00;;;153.70;2252.80;;;;;;5094333;28;20487;-87
2021/11/22 06:25:29;;;;;;;188.75;112.50;;;128.90;2252.80;;;;;;5095047;28;20024;-86
2021/11/22 06:27:55;;;;;;;180.63;112.38;;;128.70;2252.80;;;;;;5094084;28;20497;-87
2021/11/22 06:30:21;;;;;;;117.60;71.80;;;128.80;2252.80;;;;;;5094166;28;20024;-86
2021/11/22 06:32:48;;;;;;;102.55;67.70;;;128.70;2252.80;;;;;;5094153;28;20433;-87
2021/11/22 06:35:17;;;;;;;109.78;71.45;;;128.20;2252.80;;;;;;5095252;28;20085;-85
2021/11/22 06:37:43;;;;;;;134.00;81.07;;;128.70;2252.80;;;;;;5093769;28;20498;-88
2021/11/22 06:40:09;;;;;;;134.05;83.72;;;128.60;2252.80;;;;;;5095336;28;20028;-88
2021/11/22 06:42:35;;;;;;;111.68;68.93;;;128.70;2252.80;;;;;;5095150;28;20047;-86
2021/11/22 06:45:01;;;;;;;112.80;72.00;;;128.80;2252.80;;;;;;5093612;28;20031;-86
2021/11/22 06:47:28;;;;;;;126.65;85.22;;;128.90;2252.80;;;;;;5093867;28;20123;-87
2021/11/22 06:49:54;;;;;;;116.18;80.20;;;128.90;2252.80;;;;;;5093971;28;20059;-86
2021/11/22 06:52:21;;;;;;;103.88;68.88;;;128.80;2252.80;;;;;;5094133;28;20028;-87
2021/11/22 06:54:48;;;;;;;88.47;61.15;;;128.80;2252.80;;;;;;5093922;28;20024;-86
2021/11/22 06:57:14;;;;;;;116.88;72.88;;;128.80;2252.80;;;;;;5092500;28;20407;-87
2021/11/22 06:59:42;;;;;;;138.57;80.63;;;128.90;2252.80;;;;;;5094071;28;20028;-86
2021/11/22 07:02:16;;;;;;;183.45;131.38;;;153.60;2252.80;;;;;;5094890;28;20027;-87
2021/11/22 07:04:45;;;;;;;189.20;139.10;;;128.90;2252.80;;;;;;5093535;28;20035;-86
2021/11/22 07:07:12;;;;;;;148.40;100.68;;;128.90;2252.80;;;;;;5093482;28;20046;-86
2021/11/22 07:09:37;;;;;;;148.98;100.38;;;128.80;2252.80;;;;;;5093654;28;20032;-87
2021/11/22 07:12:04;;;;;;;133.35;91.78;;;153.60;2252.80;;;;;;5093319;28;20043;-85
2021/11/22 07:14:32;;;;;;;121.32;81.05;;;153.80;2252.80;;;;;;5093081;28;20074;-85
2021/11/22 07:16:59;;;;;;;177.20;106.55;;;154.00;2252.80;;;;;;5094418;28;20059;-85
2021/11/22 07:19:25;;;;;;;152.00;110.28;;;153.90;2252.80;;;;;;5092880;28;20024;-87
2021/11/22 07:21:53;;;;;;;137.70;91.38;;;154.00;2252.80;;;;;;5093240;28;20036;-86
2021/11/22 07:24:19;;;;;;;123.13;81.28;;;154.10;2252.80;;;;;;5093249;28;20028;-87
2021/11/22 07:26:45;;;;;;;103.90;70.25;;;154.20;2252.80;;;;;;5094154;28;20103;-86
2021/11/22 07:29:11;;;;;;;206.63;142.75;;;154.10;2252.80;;;;;;5093004;28;20124;-84
2021/11/22 07:31:37;;;;;;;188.35;129.63;;;154.30;2252.80;;;;;;5093189;28;20073;-85
2021/11/22 07:34:03;;;;;;;215.73;142.15;;;154.50;2252.80;;;;;;5093325;28;20115;-86
2021/11/22 07:36:29;;;;;;;203.98;130.88;;;154.50;2252.80;;;;;;5094112;28;20372;-84
2021/11/22 07:38:54;;;;;;;156.38;108.05;;;179.20;2252.80;;;;;;5093302;28;20024;-84
2021/11/22 07:41:20;;;;;;;152.93;104.38;;;179.20;2252.80;;;;;;5094394;28;20024;-86
2021/11/22 07:43:47;;;;;;;189.98;123.90;;;179.40;2252.80;;;;;;5094295;28;20103;-85
2021/11/22 07:46:12;;;;;;;224.15;144.57;;;179.50;2252.80;;;;;;5092769;28;20024;-85
2021/11/22 07:48:38;;;;;;;228.27;147.80;;;179.50;2252.80;;;;;;5093078;28;20111;-84
2021/11/22 07:51:04;;;;;;;218.30;141.95;;;179.50;2252.80;;;;;;5093092;28;20538;-84
2021/11/22 07:53:31;;;;;;;182.07;123.85;;;179.40;2252.80;;;;;;5092814;28;20031;-84
2021/11/22 07:55:57;;;;;;;211.63;139.10;;;179.40;2252.80;;;;;;5092470;28;20502;-85
2021/11/22 07:58:23;;;;;;;188.20;125.95;;;179.50;2252.80;;;;;;5092878;28;20028;-84
2021/11/22 08:00:50;;;;;;;148.00;101.45;;;179.60;2252.80;;;;;;5093025;28;20028;-86
2021/11/22 08:03:16;;;;;;;135.80;92.05;;;179.60;2252.80;;;;;;5092745;28;20031;-86
2021/11/22 08:05:42;;;;;;;147.68;99.32;;;179.60;2252.80;;;;;;5092775;28;20021;-85
2021/11/22 08:08:08;;;;;;;151.13;99.80;;;179.60;2252.80;;;;;;5094912;28;20039;-85
2021/11/22 08:10:36;;;;;;;143.27;97.85;;;179.70;2252.80;;;;;;5096720;28;20024;-86
2021/11/22 08:13:08;;;;;;;125.63;90.38;;;179.70;2252.80;;;;;;5096730;28;20031;-86
2021/11/22 08:15:35;;;;;;;145.57;98.77;;;179.80;2252.80;;;;;;5097488;28;20027;-86
2021/11/22 08:18:04;;;;;;;158.40;108.90;;;180.00;2252.80;;;;;;5097719;28;20024;-85
2021/11/22 08:20:30;;;;;;;153.30;107.20;;;180.00;2252.80;;;;;;5097199;28;20028;-86
2021/11/22 08:22:57;;;;;;;199.70;138.20;;;180.00;2252.80;;;;;;5096863;28;20102;-85
2021/11/22 08:25:25;;;;;;;200.63;134.25;;;179.90;2252.80;;;;;;5096278;28;20038;-81
2021/11/22 08:27:53;;;;;;;253.88;178.98;;;180.10;2252.80;;;;;;5091093;28;20054;-80
2021/11/22 08:30:23;;;;;;;226.00;157.38;;;204.80;2252.80;;;;;;5093399;28;20028;-82
2021/11/22 08:32:51;;;;;;;216.02;140.48;;;204.80;2252.80;;;;;;5095799;28;20073;-81
2021/11/22 08:35:18;;;;;;;207.45;142.88;;;204.80;2252.80;;;;;;5096959;28;20476;-82
2021/11/22 08:37:45;;;;;;;226.20;154.88;;;204.90;2252.80;;;;;;5095765;28;20455;-81
2021/11/22 08:40:14;;;;;;;242.55;174.95;;;205.00;2252.80;;;;;;5097303;28;20028;-79
2021/11/22 08:42:40;;;;;;;267.23;184.10;;;205.10;2252.80;;;;;;5095405;28;20025;-84
2021/11/22 08:45:07;;;;;;;274.33;199.38;;;205.20;2252.80;;;;;;5095638;28;20047;-84
2021/11/22 08:47:33;;;;;;;243.32;171.20;;;205.20;2252.80;;;;;;5095738;28;20020;-83
2021/11/22 08:49:59;;;;;;;270.85;192.23;;;205.40;2252.80;;;;;;5095648;28;20027;-78
2021/11/22 08:52:26;;;;;;;278.30;193.43;;;205.50;2252.80;;;;;;5095283;28;20115;-80
2021/11/22 08:54:52;;;;;;;250.23;182.05;;;205.60;2252.80;;;;;;5096535;28;20031;-83
2021/11/22 08:57:20;;;;;;;283.10;193.18;;;205.60;2252.80;;;;;;5096394;28;20048;-81
2021/11/22 08:59:46;;;;;;;246.98;179.10;;;230.40;2252.80;;;;;;5095380;28;20036;-82
2021/11/22 09:02:12;;;;;;;251.50;176.15;;;230.50;2252.80;;;;;;5095325;28;20040;-80
2021/11/22 09:04:38;;;;;;;206.73;150.32;;;230.60;2252.80;;;;;;5095049;28;20391;-81
2021/11/22 09:07:04;;;;;;;211.40;146.70;;;230.60;2252.80;;;;;;5095147;28;20028;-81
2021/11/22 09:09:29;;;;;;;197.05;139.23;;;230.70;2252.80;;;;;;5094747;28;20036;-83
2021/11/22 09:11:55;;;;;;;193.77;139.00;;;230.80;2252.80;;;;;;5095004;28;20059;-82
2021/11/22 09:14:21;;;;;;;207.25;146.30;;;230.80;2252.80;;;;;;5095200;28;20046;-80
2021/11/22 09:16:48;;;;;;;218.70;157.43;;;230.80;2252.80;;;;;;5094804;28;20024;-82
2021/11/22 09:19:14;;;;;;;179.82;129.85;;;230.90;2252.80;;;;;;5094067;28;20055;-79
2021/11/22 09:21:40;;;;;;;181.77;130.45;;;231.00;2252.80;;;;;;5095074;28;20430;-81
2021/11/22 09:24:07;;;;;;;182.20;122.22;;;230.70;2252.80;;;;;;5094435;28;20055;-81
2021/11/22 09:26:33;;;;;;;172.23;128.88;;;231.20;2252.80;;;;;;5094809;28;20035;-82
2021/11/22 09:29:00;;;;;;;167.57;118.13;;;231.30;2252.80;;;;;;5095923;28;20371;-79
2021/11/22 09:31:25;;;;;;;157.35;112.70;;;256.00;2252.80;;;;;;5094329;28;20348;-78
2021/11/22 09:33:53;;;;;;;176.95;129.57;;;256.10;2252.80;;;;;;5094783;28;20035;-81
2021/11/22 09:36:20;;;;;;;142.15;98.90;;;256.10;2252.80;;;;;;5094568;28;20024;-79
2021/11/22 09:38:46;;;;;;;147.07;98.50;;;256.30;2252.80;;;;;;5095294;28;20474;-82
2021/11/22 09:41:13;;;;;;;131.07;89.68;;;256.30;2252.80;;;;;;5094197;28;20376;-81
2021/11/22 09:43:44;;;;;;;116.60;85.22;;;256.40;2252.80;;;;;;5094169;28;20020;-80
2021/11/22 09:46:10;;;;;;;322.02;178.35;;;256.50;2252.80;;;;;;5093933;28;20031;-81
2021/11/22 09:48:39;;;;;;;299.73;171.13;;;256.60;2252.80;;;;;;5095396;28;20081;-80
2021/11/22 09:51:05;;;;;;;182.18;113.82;;;256.70;2252.80;;;;;;5095116;28;20084;-81
2021/11/22 09:53:32;;;;;;;128.35;87.00;;;256.80;2252.80;;;;;;5093550;28;20024;-81
2021/11/22 09:55:57;;;;;;;109.97;75.97;;;256.90;2252.80;;;;;;5093712;28;20083;-79
2021/11/22 09:58:23;;;;;;;88.13;63.58;;;256.90;2252.80;;;;;;5095037;28;20066;-80
2021/11/22 10:00:53;;;;;;;85.38;56.33;;;281.60;2278.40;;;;;;5095165;28;20028;-80
2021/11/22 10:03:24;;;;;;;70.47;51.38;;;281.60;2278.40;;;;;;5095049;28;20020;-81
2021/11/22 10:06:02;;;;;;;67.22;48.25;;;281.70;2278.40;;;;;;5094553;28;20031;-80
2021/11/22 10:08:36;;;;;;;63.78;47.88;;;281.70;2278.40;;;;;;5093780;28;20032;-81
2021/11/22 10:11:02;;;;;;;174.18;99.68;;;281.80;2278.40;;;;;;5094391;28;20036;-82
2021/11/22 10:13:47;;;;;;;221.75;124.05;;;281.90;2278.40;;;;;;5095350;28;20020;-81
2021/11/22 10:16:15;;;;;;;134.20;83.60;;;282.00;2278.40;;;;;;5095064;28;20016;-82
2021/11/22 10:18:44;;;;;;;85.68;54.00;;;282.10;2278.40;;;;;;5093649;28;20463;-81
2021/11/22 10:21:12;;;;;;;64.25;46.03;;;282.20;2278.40;;;;;;5093195;28;20051;-80
2021/11/22 10:23:40;;;;;;;111.30;74.47;;;282.30;2278.40;;;;;;5095288;28;20104;-81
2021/11/22 10:26:14;;;;;;;98.50;65.88;;;282.40;2278.40;;;;;;5093844;28;20424;-80
2021/11/22 10:28:44;;;;;;;87.05;60.70;;;282.40;2278.40;;;;;;5094257;28;20364;-82
2021/11/22 10:31:25;;;;;;;76.70;54.65;;;282.50;2278.40;;;;;;5093588;28;20391;-81
2021/11/22 10:33:53;;;;;;;77.07;55.53;;;307.20;2304.00;;;;;;5093142;28;20492;-79
2021/11/22 10:36:22;;;;;;;72.03;59.05;;;307.20;2304.00;;;;;;5094605;28;20109;-81
2021/11/22 10:38:51;;;;;;;80.65;59.05;;;307.30;2304.00;;;;;;5093132;28;20032;-81
2021/11/22 10:41:20;;;;;;;86.05;58.58;;;307.30;2304.00;;;;;;5093774;28;20383;-81
2021/11/22 10:43:50;;;;;;;84.95;60.08;;;307.40;2304.00;;;;;;5093114;28;20024;-82
2021/11/22 10:46:28;;;;;;;84.88;62.45;;;307.40;2304.00;;;;;;5094336;28;20063;-82
2021/11/22 10:49:09;;;;;;;91.25;68.47;;;307.50;2304.00;;;;;;5092994;28;20084;-79
2021/11/22 10:51:40;;;;;;;102.07;78.53;;;307.60;2304.00;;;;;;5093245;28;20024;-80
2021/11/22 10:54:07;;;;;;;91.60;70.22;;;307.70;2304.00;;;;;;5094602;28;20024;-81
2021/11/22 10:56:43;;;;;;;100.65;69.50;;;307.80;2304.00;;;;;;5093794;28;20040;-81
2021/11/22 10:59:14;;;;;;;106.65;77.93;;;307.80;2304.00;;;;;;5092834;28;20035;-80
2021/11/22 11:01:53;;;;;;;99.60;69.70;;;307.90;2304.00;;;;;;5093467;28;20071;-80
2021/11/22 11:04:26;;;;;;;124.63;91.78;;;307.90;2304.00;;;;;;5094288;28;20024;-81
2021/11/22 11:07:07;;;;;;;90.30;67.57;;;308.00;2304.00;;;;;;5092635;28;20156;-80
2021/11/22 11:09:51;;;;;;;92.82;72.18;;;308.10;2304.00;;;;;;5093907;28;20032;-81
2021/11/22 11:12:19;;;;;;;86.03;66.20;;;308.10;2304.00;;;;;;5094089;28;20460;-81
2021/11/22 11:15:09;;;;;;;79.88;64.75;;;308.10;2304.00;;;;;;5094275;28;20031;-79
2021/11/22 11:17:36;;;;;;;86.07;66.95;;;332.80;2329.60;;;;;;5093554;28;20055;-79
2021/11/22 11:20:07;;;;;;;86.32;67.78;;;332.80;2329.60;;;;;;5092747;28;20119;-80
2021/11/22 11:22:33;;;;;;;95.22;72.90;;;332.90;2329.60;;;;;;5093451;28;20028;-79
2021/11/22 11:25:00;;;;;;;97.65;76.20;;;332.90;2329.60;;;;;;5092599;28;20024;-79
2021/11/22 11:27:26;;;;;;;98.22;77.68;;;332.90;2329.60;;;;;;5092602;28;20024;-80
2021/11/22 11:29:53;;;;;;;105.60;78.82;;;333.00;2329.60;;;;;;5092277;28;20028;-79
2021/11/22 11:32:19;;;;;;;106.20;79.50;;;333.00;2329.60;;;;;;5093889;28;20044;-80
2021/11/22 11:34:50;;;;;;;111.60;80.85;;;333.10;2329.60;;;;;;5092514;28;20028;-81
2021/11/22 11:37:53;;;;;;;105.43;79.70;;;333.20;2329.60;;;;;;5093551;28;20024;-80
2021/11/22 11:40:24;;;;;;;108.75;81.43;;;333.20;2329.60;;;;;;5092595;28;20036;-81
2021/11/22 11:43:17;;;;;;;92.95;72.15;;;333.20;2329.60;;;;;;5094455;28;20024;-79
2021/11/22 11:45:54;;;;;;;113.75;86.40;;;333.30;2329.60;;;;;;5096188;28;20451;-80
2021/11/22 11:48:22;;;;;;;112.47;84.22;;;333.40;2329.60;;;;;;5098156;28;20032;-79
2021/11/22 11:50:48;;;;;;;100.22;79.45;;;333.40;2329.60;;;;;;5096120;28;20028;-78
2021/11/22 11:53:19;;;;;;;98.30;77.32;;;333.40;2329.60;;;;;;5097728;28;20361;-79